Time;durP1;ratioP1;P1;durP2;ratioP2;P2;SDS_P1;SDS_P2;PMS_P1;PMS_P2;Temp;Humidity;BMP_temperature;BMP_pressure;BME280_temperature;BME280_humidity;BME280_pressure;Samples;Min_cycle;Max_cycle;Signal;HPM_P1;HPM_P2
2022/07/22 00:00:47;;;;;;;1.50;1.00;;;18.60;98.20;;;;;;6051619;23;20447;-76
2022/07/22 00:03:14;;;;;;;1.50;0.90;;;18.60;98.20;;;;;;6086555;23;20494;-76
2022/07/22 00:05:41;;;;;;;1.50;0.90;;;18.60;98.20;;;;;;6074584;23;20439;-77
2022/07/22 00:08:10;;;;;;;1.50;0.90;;;18.60;98.20;;;;;;6073701;23;20534;-76
2022/07/22 00:10:37;;;;;;;1.50;0.90;;;18.50;98.20;;;;;;6065241;23;21074;-76
2022/07/22 00:13:04;;;;;;;1.50;0.90;;;18.60;98.20;;;;;;6064377;23;20427;-76
2022/07/22 00:15:31;;;;;;;1.50;0.90;;;18.60;98.20;;;;;;6065738;23;20503;-78
2022/07/22 00:17:58;;;;;;;1.50;1.00;;;18.50;98.20;;;;;;6073171;23;20451;-76
2022/07/22 00:20:25;;;;;;;1.50;0.97;;;18.60;98.20;;;;;;6064911;23;20470;-76
2022/07/22 00:22:52;;;;;;;1.50;0.90;;;18.60;98.20;;;;;;6072521;23;20478;-77
2022/07/22 00:25:20;;;;;;;1.50;0.90;;;18.50;98.20;;;;;;6064876;23;20428;-76
2022/07/22 00:27:47;;;;;;;1.50;0.90;;;18.60;98.20;;;;;;6073467;23;20489;-75
2022/07/22 00:30:14;;;;;;;1.50;0.90;;;18.60;98.20;;;;;;6064651;23;20419;-77
2022/07/22 00:32:43;;;;;;;1.50;0.90;;;18.60;98.20;;;;;;6072720;23;20481;-77
2022/07/22 00:35:10;;;;;;;1.50;0.90;;;18.60;98.20;;;;;;6065913;23;20427;-77
2022/07/22 00:37:37;;;;;;;1.50;0.90;;;18.50;98.20;;;;;;6064443;23;20443;-76
2022/07/22 00:40:05;;;;;;;1.50;0.90;;;18.50;98.20;;;;;;6065205;23;20853;-76
2022/07/22 00:42:34;;;;;;;1.50;0.90;;;18.40;98.20;;;;;;6069917;23;20450;-76
2022/07/22 00:45:01;;;;;;;1.50;1.00;;;18.40;98.20;;;;;;6067074;23;20474;-77
2022/07/22 00:47:28;;;;;;;1.50;0.90;;;18.40;98.20;;;;;;6064889;23;20444;-77
2022/07/22 00:49:55;;;;;;;1.50;0.90;;;18.40;98.20;;;;;;6065434;23;20424;-76
2022/07/22 00:52:23;;;;;;;1.50;0.90;;;18.40;98.20;;;;;;6065168;23;20510;-76
2022/07/22 00:54:51;;;;;;;1.50;0.90;;;18.40;98.20;;;;;;6075439;23;20416;-77
2022/07/22 00:57:18;;;;;;;1.50;0.90;;;18.40;98.20;;;;;;6066055;23;20439;-76
2022/07/22 00:59:47;;;;;;;1.50;0.90;;;18.40;98.20;;;;;;6065695;23;20526;-76
2022/07/22 01:02:14;;;;;;;1.50;0.90;;;18.40;98.20;;;;;;6067314;23;20847;-76
2022/07/22 01:04:41;;;;;;;1.50;0.90;;;18.40;98.20;;;;;;6070020;23;20424;-77
2022/07/22 01:07:09;;;;;;;1.50;0.90;;;18.40;98.20;;;;;;6064105;23;20450;-76
2022/07/22 01:09:36;;;;;;;1.50;1.00;;;18.40;98.20;;;;;;6074141;23;20424;-77
2022/07/22 01:12:05;;;;;;;1.50;1.00;;;18.40;98.20;;;;;;6064073;23;20450;-77
2022/07/22 01:14:32;;;;;;;1.50;0.90;;;18.40;98.20;;;;;;6071329;23;20514;-77
2022/07/22 01:17:00;;;;;;;1.50;1.00;;;18.50;98.20;;;;;;6064330;23;20478;-77
2022/07/22 01:19:27;;;;;;;1.50;0.90;;;18.40;98.20;;;;;;6072806;23;20427;-76
2022/07/22 01:21:56;;;;;;;1.50;0.90;;;18.40;98.20;;;;;;6064339;23;21157;-76
2022/07/22 01:24:23;;;;;;;1.50;0.90;;;18.40;98.20;;;;;;6064455;23;20499;-76
2022/07/22 01:26:50;;;;;;;1.50;0.90;;;18.40;98.20;;;;;;6062079;23;20454;-77
2022/07/22 01:29:17;;;;;;;1.50;0.93;;;18.40;98.20;;;;;;6073388;23;20430;-77
2022/07/22 01:31:44;;;;;;;1.50;0.90;;;18.40;98.20;;;;;;6059094;23;21264;-76
2022/07/22 01:34:11;;;;;;;1.50;0.90;;;18.40;98.20;;;;;;6071019;23;20461;-77
2022/07/22 01:36:38;;;;;;;1.50;0.90;;;18.40;98.20;;;;;;6063687;23;20443;-77
2022/07/22 01:39:06;;;;;;;1.50;0.90;;;18.40;98.20;;;;;;6065106;23;20814;-77
2022/07/22 01:41:33;;;;;;;1.50;1.00;;;18.40;98.20;;;;;;6059701;23;20970;-77
2022/07/22 01:44:00;;;;;;;1.50;0.90;;;18.40;98.20;;;;;;6078148;23;20434;-77
2022/07/22 01:46:27;;;;;;;1.50;0.90;;;18.40;98.20;;;;;;6058372;23;20454;-76
2022/07/22 01:48:55;;;;;;;1.50;0.97;;;18.40;98.20;;;;;;6078591;23;20463;-77
2022/07/22 01:51:22;;;;;;;1.50;0.90;;;18.40;98.20;;;;;;6056275;23;20506;-77
2022/07/22 01:53:49;;;;;;;1.50;0.90;;;18.40;98.20;;;;;;6078529;23;20431;-77
2022/07/22 01:56:18;;;;;;;1.50;0.90;;;18.40;98.20;;;;;;6063057;23;20538;-77
2022/07/22 01:58:44;;;;;;;1.50;0.90;;;18.40;98.20;;;;;;6080153;23;20419;-75
2022/07/22 02:01:11;;;;;;;1.50;0.90;;;18.40;98.20;;;;;;6062387;23;20522;-76
2022/07/22 02:03:39;;;;;;;1.50;0.90;;;18.40;98.20;;;;;;6082435;23;20510;-77
2022/07/22 02:06:07;;;;;;;1.50;0.90;;;18.40;98.20;;;;;;6072263;23;20531;-76
2022/07/22 02:08:34;;;;;;;1.50;1.00;;;18.40;98.20;;;;;;6073085;23;20428;-77
2022/07/22 02:11:01;;;;;;;1.50;0.90;;;18.30;98.20;;;;;;6062503;23;20510;-77
2022/07/22 02:13:30;;;;;;;1.50;0.90;;;18.30;98.20;;;;;;6063709;23;20479;-77
2022/07/22 02:15:57;;;;;;;1.50;0.90;;;18.30;98.20;;;;;;6063437;23;20988;-76
2022/07/22 02:18:25;;;;;;;1.50;0.90;;;18.30;98.20;;;;;;6073649;23;20829;-75
2022/07/22 02:20:53;;;;;;;1.50;0.90;;;18.30;98.20;;;;;;6050624;23;20451;-76
2022/07/22 02:23:21;;;;;;;1.50;1.00;;;18.30;98.20;;;;;;6084906;23;20465;-76
2022/07/22 02:25:48;;;;;;;1.50;0.90;;;18.30;98.20;;;;;;6063185;23;20448;-76
2022/07/22 02:28:15;;;;;;;1.50;0.93;;;18.30;98.20;;;;;;6064348;23;20432;-76
2022/07/22 02:30:43;;;;;;;1.50;1.00;;;18.30;98.20;;;;;;6062810;23;20450;-77
2022/07/22 02:33:10;;;;;;;1.50;0.90;;;18.30;98.20;;;;;;6071391;23;20962;-77
2022/07/22 02:35:37;;;;;;;1.50;0.90;;;18.30;98.20;;;;;;6081857;23;20416;-77
2022/07/22 02:38:05;;;;;;;1.50;0.90;;;18.30;98.20;;;;;;6094331;23;20483;-77
2022/07/22 02:40:32;;;;;;;1.60;1.30;;;18.30;98.20;;;;;;6064412;23;20482;-76
2022/07/22 02:42:59;;;;;;;1.50;0.90;;;18.30;98.20;;;;;;6062650;23;20510;-76
2022/07/22 02:45:26;;;;;;;1.50;0.90;;;18.20;98.20;;;;;;6067289;23;20848;-76
2022/07/22 02:47:57;;;;;;;1.50;0.90;;;18.20;98.20;;;;;;6064842;23;20392;-77
2022/07/22 02:50:24;;;;;;;1.50;1.00;;;18.20;98.20;;;;;;6064628;23;20426;-76
2022/07/22 02:52:52;;;;;;;1.50;0.90;;;18.20;98.20;;;;;;6071231;23;20457;-77
2022/07/22 02:55:19;;;;;;;1.50;0.90;;;18.20;98.20;;;;;;6064256;23;20419;-77
2022/07/22 02:57:47;;;;;;;1.50;0.90;;;18.20;98.20;;;;;;6063860;23;20466;-77
2022/07/22 03:00:14;;;;;;;1.50;0.90;;;18.20;98.20;;;;;;6067758;23;20888;-76
2022/07/22 03:02:42;;;;;;;1.50;0.90;;;18.20;98.20;;;;;;6069604;23;20450;-77
2022/07/22 03:05:11;;;;;;;1.50;0.90;;;18.20;98.20;;;;;;6074094;23;20420;-77
2022/07/22 03:07:39;;;;;;;1.50;0.90;;;18.20;98.20;;;;;;6071626;23;20478;-77
2022/07/22 03:10:08;;;;;;;1.50;0.90;;;18.20;98.20;;;;;;6065177;23;20424;-78
2022/07/22 03:12:35;;;;;;;1.50;0.90;;;18.20;98.20;;;;;;6070576;23;20529;-77
2022/07/22 03:15:02;;;;;;;1.50;1.00;;;18.20;98.20;;;;;;6065499;23;20496;-77
2022/07/22 03:17:29;;;;;;;1.50;0.90;;;18.20;98.20;;;;;;6072700;23;20462;-76
2022/07/22 03:19:56;;;;;;;1.50;0.90;;;18.20;98.20;;;;;;6067738;23;20431;-77
2022/07/22 03:22:24;;;;;;;1.50;0.90;;;18.20;98.20;;;;;;6068313;23;20451;-76
2022/07/22 03:24:51;;;;;;;1.50;0.90;;;18.20;98.20;;;;;;6068577;23;20455;-77
2022/07/22 03:27:19;;;;;;;1.50;0.90;;;18.10;98.20;;;;;;6063926;23;20454;-77
2022/07/22 03:29:45;;;;;;;1.50;0.90;;;18.10;98.20;;;;;;6063066;23;20483;-77
2022/07/22 03:32:13;;;;;;;1.50;0.90;;;18.10;98.20;;;;;;6066203;23;20545;-77
2022/07/22 03:34:40;;;;;;;1.50;1.00;;;18.10;98.20;;;;;;6081074;23;20914;-77
2022/07/22 03:37:07;;;;;;;1.50;0.93;;;18.10;98.20;;;;;;6068966;23;20446;-77
2022/07/22 03:39:36;;;;;;;1.50;0.97;;;18.10;98.20;;;;;;6064774;23;20432;-78
2022/07/22 03:42:04;;;;;;;1.50;0.90;;;18.10;98.20;;;;;;6064677;23;20454;-77
2022/07/22 03:44:31;;;;;;;1.50;0.90;;;18.10;98.20;;;;;;6073116;23;20455;-77
2022/07/22 03:46:58;;;;;;;1.50;1.00;;;18.10;98.20;;;;;;6061908;23;20462;-77
2022/07/22 03:49:25;;;;;;;1.50;0.90;;;18.10;98.20;;;;;;6075223;23;20429;-77
2022/07/22 03:51:52;;;;;;;1.50;0.97;;;18.00;98.20;;;;;;6062232;23;20537;-78
2022/07/22 03:54:20;;;;;;;1.50;0.90;;;18.00;98.20;;;;;;6072781;23;20431;-76
2022/07/22 03:56:48;;;;;;;1.50;0.90;;;18.00;98.20;;;;;;6063631;23;20506;-77
2022/07/22 03:59:16;;;;;;;1.50;0.90;;;18.00;98.20;;;;;;6065482;23;20431;-78
2022/07/22 04:01:44;;;;;;;1.50;1.00;;;18.00;98.20;;;;;;6062973;23;20475;-77
2022/07/22 04:04:11;;;;;;;1.50;0.90;;;18.00;98.20;;;;;;6073898;23;20904;-77
2022/07/22 04:06:38;;;;;;;1.50;0.90;;;17.90;98.20;;;;;;6063359;23;20465;-77
2022/07/22 04:09:05;;;;;;;1.50;0.90;;;17.90;98.20;;;;;;6080479;23;20431;-77
2022/07/22 04:11:32;;;;;;;1.50;0.90;;;18.00;98.20;;;;;;6058527;23;20450;-77
2022/07/22 04:14:01;;;;;;;1.50;0.90;;;18.00;98.20;;;;;;6077919;23;20430;-77
2022/07/22 04:16:28;;;;;;;1.50;0.90;;;18.00;98.20;;;;;;6065126;23;21134;-76
2022/07/22 04:18:55;;;;;;;1.50;1.00;;;18.00;98.20;;;;;;6066144;23;20498;-77
2022/07/22 04:21:22;;;;;;;1.50;0.90;;;18.00;98.20;;;;;;6064215;23;20447;-78
2022/07/22 04:23:49;;;;;;;1.50;0.90;;;18.00;98.20;;;;;;6063120;23;20445;-77
2022/07/22 04:26:19;;;;;;;1.50;0.90;;;18.00;98.20;;;;;;6055929;23;20450;-78
2022/07/22 04:28:46;;;;;;;1.50;0.90;;;18.00;98.20;;;;;;6087936;23;20432;-76
2022/07/22 04:31:15;;;;;;;1.50;0.90;;;18.00;98.20;;;;;;6054537;23;20478;-77
2022/07/22 04:33:42;;;;;;;1.50;0.90;;;18.00;98.20;;;;;;6083959;23;20428;-76
2022/07/22 04:36:13;;;;;;;1.50;0.90;;;18.00;98.20;;;;;;6072564;23;20483;-77
2022/07/22 04:38:40;;;;;;;1.50;0.90;;;18.00;98.20;;;;;;6064182;23;20447;-77
2022/07/22 04:41:07;;;;;;;1.50;0.90;;;18.00;98.20;;;;;;6053148;23;20491;-78
2022/07/22 04:43:35;;;;;;;1.50;0.97;;;18.00;98.20;;;;;;6082143;23;20428;-76
2022/07/22 04:46:03;;;;;;;1.50;1.00;;;18.00;98.20;;;;;;6055131;23;20447;-76
2022/07/22 04:48:31;;;;;;;1.50;0.90;;;18.00;98.20;;;;;;6083362;23;20447;-75
2022/07/22 04:51:00;;;;;;;1.50;0.90;;;18.10;98.20;;;;;;6050584;23;20419;-77
2022/07/22 04:53:27;;;;;;;1.50;0.90;;;18.00;98.20;;;;;;6093037;23;20416;-76
2022/07/22 04:55:54;;;;;;;1.50;0.90;;;18.10;98.20;;;;;;6051481;23;20499;-75
2022/07/22 04:58:22;;;;;;;1.50;0.90;;;18.10;98.20;;;;;;6086642;23;20496;-77
2022/07/22 05:00:50;;;;;;;1.50;0.90;;;18.10;98.20;;;;;;6064733;23;20427;-77
2022/07/22 05:03:18;;;;;;;1.50;0.90;;;18.10;98.20;;;;;;6064460;23;20428;-77
2022/07/22 05:05:47;;;;;;;1.50;0.90;;;18.10;98.20;;;;;;6063664;23;20779;-76
2022/07/22 05:08:14;;;;;;;1.50;0.90;;;18.20;98.20;;;;;;6063717;23;20514;-77
2022/07/22 05:10:41;;;;;;;1.50;0.90;;;18.20;98.20;;;;;;6062995;23;20423;-76
2022/07/22 05:13:08;;;;;;;1.50;0.90;;;18.20;98.20;;;;;;6069889;23;20563;-76
2022/07/22 05:15:35;;;;;;;1.50;0.90;;;18.30;98.20;;;;;;6062502;23;20427;-75
2022/07/22 05:18:02;;;;;;;1.50;0.90;;;18.30;98.20;;;;;;6071113;23;20556;-76
2022/07/22 05:20:29;;;;;;;1.50;0.90;;;18.30;98.20;;;;;;6064323;23;20742;-76
2022/07/22 05:22:58;;;;;;;1.50;0.90;;;18.30;98.20;;;;;;6071408;23;20469;-77
2022/07/22 05:25:26;;;;;;;1.50;0.90;;;18.30;98.20;;;;;;6059894;23;20443;-77
2022/07/22 05:27:55;;;;;;;1.50;0.90;;;18.30;98.20;;;;;;6071429;23;20489;-77
2022/07/22 05:30:22;;;;;;;1.50;0.90;;;18.10;98.20;;;;;;6065112;23;20510;-75
2022/07/22 05:32:49;;;;;;;1.50;0.90;;;18.00;98.20;;;;;;6072792;23;21071;-78
2022/07/22 05:35:16;;;;;;;1.50;0.90;;;18.00;98.20;;;;;;6065086;23;20431;-78
2022/07/22 05:37:44;;;;;;;1.50;0.90;;;18.00;98.20;;;;;;6065592;23;20994;-78
2022/07/22 05:40:13;;;;;;;1.50;0.90;;;18.00;98.20;;;;;;6070499;23;20412;-75
2022/07/22 05:42:39;;;;;;;1.50;0.90;;;18.00;98.20;;;;;;6059058;23;21010;-77
2022/07/22 05:45:07;;;;;;;1.50;1.00;;;18.00;98.20;;;;;;6060110;23;20432;-76
2022/07/22 05:47:34;;;;;;;1.50;0.93;;;17.90;98.20;;;;;;6065661;23;20461;-77
2022/07/22 05:50:02;;;;;;;1.50;0.90;;;18.00;98.20;;;;;;6063644;23;21140;-76
2022/07/22 05:52:29;;;;;;;1.50;0.90;;;18.00;98.20;;;;;;6065541;23;20450;-77
2022/07/22 05:54:56;;;;;;;1.50;0.90;;;18.00;98.20;;;;;;6064826;23;20423;-76
2022/07/22 05:57:26;;;;;;;1.50;0.90;;;18.00;98.20;;;;;;6062754;23;20447;-78
2022/07/22 05:59:53;;;;;;;1.50;0.90;;;18.10;98.20;;;;;;6062695;23;20793;-79
2022/07/22 06:02:20;;;;;;;1.50;0.90;;;18.00;98.20;;;;;;6066830;23;20989;-78
2022/07/22 06:04:54;;;;;;;1.50;0.90;;;18.00;98.20;;;;;;6068397;23;21002;-76
2022/07/22 06:07:22;;;;;;;1.50;0.90;;;18.00;98.20;;;;;;6067854;23;20457;-78
2022/07/22 06:09:49;;;;;;;1.50;1.00;;;18.00;98.20;;;;;;6066693;23;20427;-75
2022/07/22 06:12:16;;;;;;;1.50;0.90;;;18.00;98.20;;;;;;6063414;23;20519;-77
2022/07/22 06:14:46;;;;;;;1.50;1.00;;;18.10;98.20;;;;;;6065874;23;20932;-76
2022/07/22 06:17:13;;;;;;;1.50;0.90;;;18.10;98.20;;;;;;6065973;23;20462;-77
2022/07/22 06:19:40;;;;;;;1.50;0.90;;;18.10;98.20;;;;;;6067176;23;20463;-76
2022/07/22 06:22:07;;;;;;;1.50;0.90;;;18.10;98.20;;;;;;6065160;23;20453;-78
2022/07/22 06:24:37;;;;;;;1.50;0.90;;;18.10;98.20;;;;;;6073159;23;20427;-78
2022/07/22 06:27:04;;;;;;;1.50;0.90;;;18.10;98.20;;;;;;6060286;23;21011;-77
2022/07/22 06:29:31;;;;;;;1.50;0.90;;;18.00;98.20;;;;;;6062003;23;21010;-77
2022/07/22 06:31:59;;;;;;;1.50;0.90;;;18.00;98.20;;;;;;6059008;23;20514;-77
2022/07/22 06:34:26;;;;;;;1.50;0.90;;;18.00;98.20;;;;;;6067280;23;20432;-77
2022/07/22 06:36:53;;;;;;;1.50;0.90;;;18.10;98.20;;;;;;6062219;23;20447;-77
2022/07/22 06:39:21;;;;;;;1.50;0.90;;;18.10;98.20;;;;;;6076330;23;20435;-77
2022/07/22 06:41:48;;;;;;;1.50;1.00;;;18.10;98.20;;;;;;6058683;23;21094;-77
2022/07/22 06:44:15;;;;;;;1.50;0.90;;;18.10;98.20;;;;;;6073389;23;20592;-77
2022/07/22 06:46:42;;;;;;;1.50;0.90;;;18.10;98.20;;;;;;6066168;23;21321;-77
2022/07/22 06:49:10;;;;;;;1.50;0.90;;;18.20;98.20;;;;;;6074723;23;20423;-76
2022/07/22 06:51:37;;;;;;;1.50;0.90;;;18.30;98.20;;;;;;6053865;23;20457;-76
2022/07/22 06:54:05;;;;;;;1.50;0.90;;;18.30;98.20;;;;;;6075635;23;20427;-77
2022/07/22 06:56:32;;;;;;;1.50;0.90;;;18.30;98.20;;;;;;6057459;23;20537;-77
2022/07/22 06:59:02;;;;;;;1.50;0.90;;;18.40;98.20;;;;;;6078483;23;20435;-77
2022/07/22 07:01:29;;;;;;;1.50;0.90;;;18.50;98.20;;;;;;6055708;23;20492;-76
2022/07/22 07:03:56;;;;;;;1.50;0.93;;;18.50;98.20;;;;;;6083316;23;20455;-76
2022/07/22 07:06:25;;;;;;;1.50;0.90;;;18.60;98.20;;;;;;6052744;23;20454;-77
2022/07/22 07:08:52;;;;;;;1.50;0.90;;;18.70;98.20;;;;;;6077410;23;20427;-77
2022/07/22 07:11:20;;;;;;;1.50;0.90;;;18.70;98.20;;;;;;6053842;23;20510;-77
2022/07/22 07:13:47;;;;;;;1.50;0.90;;;18.70;98.20;;;;;;6079527;23;20778;-76
2022/07/22 07:16:14;;;;;;;1.50;0.90;;;18.80;98.20;;;;;;6051836;23;20454;-76
2022/07/22 07:18:41;;;;;;;1.50;0.90;;;18.90;98.20;;;;;;6079632;23;20427;-76
2022/07/22 07:21:09;;;;;;;1.50;0.90;;;18.90;98.20;;;;;;6051000;23;20446;-76
2022/07/22 07:23:38;;;;;;;1.50;0.90;;;18.90;98.20;;;;;;6083439;23;20451;-76
2022/07/22 07:26:05;;;;;;;1.50;1.00;;;18.90;98.20;;;;;;6052416;23;20447;-77
2022/07/22 07:28:32;;;;;;;1.50;0.90;;;18.90;98.20;;;;;;6082835;23;20427;-77
2022/07/22 07:30:59;;;;;;;1.50;0.90;;;18.90;98.20;;;;;;6049738;23;20538;-76
2022/07/22 07:33:26;;;;;;;1.50;0.90;;;18.90;98.20;;;;;;6081761;23;20434;-76
2022/07/22 07:35:53;;;;;;;1.50;0.90;;;18.90;98.20;;;;;;6049518;23;20571;-76
2022/07/22 07:38:20;;;;;;;1.50;0.93;;;19.00;98.20;;;;;;6094286;23;20944;-75
2022/07/22 07:40:49;;;;;;;1.50;1.00;;;19.00;98.20;;;;;;6057335;23;20427;-76
2022/07/22 07:43:16;;;;;;;1.50;0.90;;;19.00;98.20;;;;;;6083831;23;20483;-77
2022/07/22 07:45:43;;;;;;;1.50;1.00;;;19.00;98.20;;;;;;6061631;23;20447;-76
2022/07/22 07:48:11;;;;;;;1.50;0.90;;;19.00;98.20;;;;;;6070983;23;20965;-76
2022/07/22 07:50:39;;;;;;;1.50;0.90;;;19.00;98.20;;;;;;6062876;23;20450;-77
2022/07/22 07:53:06;;;;;;;1.50;0.90;;;19.10;98.20;;;;;;6070311;23;20924;-77
2022/07/22 07:55:35;;;;;;;1.50;0.83;;;19.10;98.20;;;;;;6062446;23;20594;-77
2022/07/22 07:58:04;;;;;;;1.50;0.90;;;19.20;98.20;;;;;;6063086;23;20432;-76
2022/07/22 08:00:33;;;;;;;1.50;0.93;;;19.30;98.20;;;;;;6065151;23;20510;-76
2022/07/22 08:03:01;;;;;;;1.50;0.90;;;19.30;98.20;;;;;;6069046;23;20551;-76
2022/07/22 08:05:29;;;;;;;1.50;0.90;;;19.40;98.20;;;;;;6063474;23;20488;-77
2022/07/22 08:07:56;;;;;;;1.50;0.90;;;19.40;98.20;;;;;;6063465;23;20431;-77
2022/07/22 08:10:23;;;;;;;1.50;0.90;;;19.50;98.20;;;;;;6062426;23;20503;-76
2022/07/22 08:12:51;;;;;;;1.50;0.90;;;19.50;98.20;;;;;;6067963;23;20457;-76
2022/07/22 08:15:19;;;;;;;1.50;0.90;;;19.60;98.20;;;;;;6060976;23;20463;-75
2022/07/22 08:17:47;;;;;;;1.50;0.90;;;19.60;98.20;;;;;;6069805;23;20848;-77
2022/07/22 08:20:14;;;;;;;1.50;0.90;;;19.60;98.20;;;;;;6062924;23;20502;-77
2022/07/22 08:22:41;;;;;;;1.50;0.90;;;19.50;98.20;;;;;;6063219;23;20534;-76
2022/07/22 08:25:09;;;;;;;1.50;0.90;;;19.40;98.20;;;;;;6060608;23;20434;-77
2022/07/22 08:27:36;;;;;;;1.50;0.90;;;19.50;98.20;;;;;;6068956;23;20962;-76
2022/07/22 08:30:05;;;;;;;1.50;0.90;;;19.60;98.20;;;;;;6064085;23;20428;-77
2022/07/22 08:32:35;;;;;;;1.50;0.90;;;19.60;98.20;;;;;;6067284;23;20513;-76
2022/07/22 08:35:03;;;;;;;1.50;0.90;;;19.70;98.20;;;;;;6062499;23;20445;-76
2022/07/22 08:37:33;;;;;;;1.50;0.90;;;19.80;98.20;;;;;;6075829;23;20529;-77
2022/07/22 08:40:00;;;;;;;1.50;0.90;;;19.90;98.20;;;;;;6064601;23;20407;-76
2022/07/22 08:42:28;;;;;;;1.50;0.90;;;19.90;98.20;;;;;;6065702;23;20818;-76
2022/07/22 08:44:55;;;;;;;1.50;1.00;;;20.00;98.20;;;;;;6073854;23;20475;-76
2022/07/22 08:47:24;;;;;;;1.50;0.90;;;20.00;98.20;;;;;;6064211;23;20569;-75
2022/07/22 08:49:52;;;;;;;1.50;0.90;;;20.00;98.20;;;;;;6065199;23;20451;-76
2022/07/22 08:52:19;;;;;;;1.50;0.90;;;20.00;98.20;;;;;;6062896;23;20451;-75
2022/07/22 08:54:46;;;;;;;1.50;0.90;;;20.10;98.20;;;;;;6065001;23;20434;-75
2022/07/22 08:57:13;;;;;;;1.50;0.90;;;20.20;98.20;;;;;;6062718;23;20541;-75
2022/07/22 08:59:59;;;;;;;1.50;0.90;;;20.20;98.20;;;;;;6075929;23;20794;-76
2022/07/22 09:02:27;;;;;;;1.50;0.90;;;20.30;98.20;;;;;;6058214;23;21025;-76
2022/07/22 09:05:01;;;;;;;1.50;0.90;;;20.30;98.20;;;;;;6060561;23;20428;-78
2022/07/22 09:07:31;;;;;;;1.50;1.00;;;20.20;98.20;;;;;;6064838;23;20785;-76
2022/07/22 09:09:59;;;;;;;1.50;0.90;;;20.20;98.20;;;;;;6063685;23;20423;-77
2022/07/22 09:12:29;;;;;;;1.60;1.13;;;20.20;98.20;;;;;;6059510;23;20423;-78
2022/07/22 09:15:01;;;;;;;1.50;0.90;;;20.20;98.20;;;;;;6062009;23;20412;-77
2022/07/22 09:17:30;;;;;;;1.50;0.90;;;20.20;98.20;;;;;;6066661;23;20462;-75
2022/07/22 09:20:01;;;;;;;1.50;0.90;;;20.30;98.20;;;;;;6074099;23;21175;-76
2022/07/22 09:22:37;;;;;;;1.50;0.90;;;20.50;98.20;;;;;;6062810;23;20471;-76
2022/07/22 09:25:25;;;;;;;3.00;2.80;;;20.60;98.20;;;;;;6072465;23;20440;-76
2022/07/22 09:27:55;;;;;;;1.50;0.90;;;20.70;98.20;;;;;;6070067;23;20482;-77
2022/07/22 09:30:24;;;;;;;1.50;0.90;;;20.80;98.20;;;;;;6062908;23;20423;-77
2022/07/22 09:32:54;;;;;;;1.50;0.90;;;20.80;98.20;;;;;;6069249;23;20450;-78
2022/07/22 09:35:23;;;;;;;1.50;0.90;;;20.80;98.20;;;;;;6063880;23;20506;-77
2022/07/22 09:37:53;;;;;;;1.50;0.90;;;20.90;98.20;;;;;;6073036;23;20458;-77
2022/07/22 09:40:25;;;;;;;1.50;0.90;;;21.10;98.20;;;;;;6062228;23;20475;-77
2022/07/22 09:42:54;;;;;;;1.50;0.90;;;21.30;98.20;;;;;;6068662;23;20502;-75
2022/07/22 09:45:22;;;;;;;1.50;0.90;;;21.50;98.20;;;;;;6062793;23;20566;-75
2022/07/22 09:47:50;;;;;;;1.53;0.90;;;21.70;97.90;;;;;;6060736;23;20427;-77
2022/07/22 09:50:24;;;;;;;1.50;0.90;;;21.80;97.90;;;;;;6062198;23;20427;-77
2022/07/22 09:52:53;;;;;;;1.50;0.90;;;21.90;97.90;;;;;;6069246;23;20423;-77
2022/07/22 09:55:22;;;;;;;1.50;0.90;;;22.10;97.70;;;;;;6060202;23;20903;-77
2022/07/22 09:57:51;;;;;;;1.50;0.90;;;22.30;96.60;;;;;;6069161;23;20456;-78
2022/07/22 10:00:20;;;;;;;1.50;0.90;;;22.50;96.40;;;;;;6061153;23;20455;-76
2022/07/22 10:02:50;;;;;;;1.60;1.00;;;22.50;96.10;;;;;;6066803;23;20551;-76
2022/07/22 10:05:21;;;;;;;1.50;0.90;;;22.60;95.70;;;;;;6057682;23;20496;-76
2022/07/22 10:07:52;;;;;;;1.50;0.90;;;22.70;95.50;;;;;;6060405;23;20451;-76
2022/07/22 10:10:21;;;;;;;1.50;0.90;;;22.80;95.20;;;;;;6062161;23;20428;-77
2022/07/22 10:12:50;;;;;;;1.50;0.90;;;22.90;95.20;;;;;;6068490;23;20522;-77
2022/07/22 10:15:18;;;;;;;1.50;0.90;;;23.10;94.00;;;;;;6059527;23;20455;-76
2022/07/22 10:17:48;;;;;;;1.50;0.90;;;23.30;93.50;;;;;;6068244;23;20646;-77
2022/07/22 10:20:19;;;;;;;1.50;0.90;;;23.30;93.10;;;;;;6061717;23;20434;-76
2022/07/22 10:22:56;;;;;;;1.50;0.90;;;23.50;93.50;;;;;;6069979;23;20478;-76
2022/07/22 10:25:24;;;;;;;1.50;0.90;;;23.60;93.00;;;;;;6063937;23;20427;-76
2022/07/22 10:27:54;;;;;;;1.50;1.00;;;23.80;91.60;;;;;;6061630;23;20544;-77
2022/07/22 10:30:24;;;;;;;1.50;0.90;;;23.90;92.10;;;;;;6060798;23;20958;-76
2022/07/22 10:33:09;;;;;;;1.50;0.90;;;24.10;91.10;;;;;;6065523;23;20526;-76
2022/07/22 10:35:38;;;;;;;1.50;0.90;;;24.20;90.10;;;;;;6058210;23;20427;-76
2022/07/22 10:38:09;;;;;;;1.50;0.93;;;24.20;90.80;;;;;;6059071;23;20522;-75
2022/07/22 10:40:50;;;;;;;1.50;0.80;;;23.90;89.90;;;;;;6058099;23;20459;-76
2022/07/22 10:43:18;;;;;;;1.50;0.87;;;23.70;90.30;;;;;;6059638;23;20503;-77
2022/07/22 10:45:48;;;;;;;1.50;0.80;;;23.70;91.10;;;;;;6059892;23;20502;-77
2022/07/22 10:48:18;;;;;;;1.50;0.90;;;23.70;91.00;;;;;;6068904;23;20515;-76
2022/07/22 10:50:49;;;;;;;1.50;0.87;;;23.70;90.90;;;;;;6059377;23;20499;-76
2022/07/22 10:53:20;;;;;;;1.50;0.80;;;23.70;91.20;;;;;;6056635;23;20450;-76
2022/07/22 10:56:09;;;;;;;1.47;0.90;;;23.90;91.90;;;;;;6058164;23;20444;-75
2022/07/22 10:58:53;;;;;;;1.50;0.90;;;23.90;90.10;;;;;;6060537;23;20423;-75
2022/07/22 11:01:26;;;;;;;1.50;0.90;;;23.90;90.50;;;;;;6058291;23;20422;-75
2022/07/22 11:03:53;;;;;;;1.50;0.80;;;23.90;89.90;;;;;;6060954;23;20468;-76
2022/07/22 11:06:25;;;;;;;1.50;0.80;;;23.80;90.60;;;;;;6069280;23;20480;-77
2022/07/22 11:08:57;;;;;;;1.47;0.80;;;23.80;90.30;;;;;;6062337;23;20507;-77
2022/07/22 11:11:37;;;;;;;1.50;0.87;;;23.80;90.70;;;;;;6053153;23;20450;-77
2022/07/22 11:14:11;;;;;;;1.50;0.90;;;23.80;90.10;;;;;;6073262;23;20408;-76
2022/07/22 11:16:39;;;;;;;1.50;0.90;;;23.80;90.50;;;;;;6057856;23;20963;-75
2022/07/22 11:19:06;;;;;;;1.50;0.80;;;23.80;89.10;;;;;;6071316;23;20427;-77
2022/07/22 11:21:36;;;;;;;1.47;0.80;;;23.90;88.30;;;;;;6059388;23;20539;-77
2022/07/22 11:24:07;;;;;;;1.50;0.87;;;24.10;88.60;;;;;;6077179;23;20436;-77
2022/07/22 11:26:40;;;;;;;1.50;0.90;;;24.40;90.50;;;;;;6064244;23;21060;-78
2022/07/22 11:29:08;;;;;;;1.50;0.80;;;24.90;88.10;;;;;;6073643;23;20407;-77
2022/07/22 11:31:36;;;;;;;1.50;0.90;;;25.20;86.80;;;;;;6057490;23;20465;-75
2022/07/22 11:34:08;;;;;;;1.50;0.80;;;25.60;85.80;;;;;;6056557;23;20978;-75
2022/07/22 11:36:38;;;;;;;1.50;0.90;;;26.00;85.00;;;;;;6052121;23;20497;-75
2022/07/22 11:39:07;;;;;;;1.50;0.90;;;26.40;81.80;;;;;;6072361;23;20455;-76
2022/07/22 11:41:34;;;;;;;1.43;0.80;;;26.40;82.50;;;;;;6059628;23;21015;-77
2022/07/22 11:44:03;;;;;;;1.50;0.83;;;26.50;81.20;;;;;;6063165;23;20446;-76
2022/07/22 11:46:36;;;;;;;1.47;0.80;;;26.40;82.70;;;;;;6062994;23;20996;-77
2022/07/22 11:49:03;;;;;;;1.50;0.80;;;26.20;82.20;;;;;;6083921;23;20799;-77
2022/07/22 11:51:32;;;;;;;1.50;0.80;;;26.10;83.20;;;;;;6052300;23;20453;-76
2022/07/22 11:54:00;;;;;;;1.50;0.80;;;25.90;82.70;;;;;;6073698;23;20423;-75
2022/07/22 11:56:29;;;;;;;1.50;1.00;;;25.80;82.60;;;;;;6053558;23;20509;-76
2022/07/22 11:58:56;;;;;;;1.50;1.00;;;25.80;82.90;;;;;;6075926;23;20813;-77
2022/07/22 12:01:25;;;;;;;1.50;1.00;;;26.10;82.50;;;;;;6058214;23;20489;-75
2022/07/22 12:03:54;;;;;;;1.47;0.80;;;26.10;81.30;;;;;;6069513;23;20838;-76
2022/07/22 12:06:23;;;;;;;1.43;0.80;;;26.10;80.10;;;;;;6051600;23;20859;-76
2022/07/22 12:08:53;;;;;;;1.47;0.80;;;26.10;81.20;;;;;;6076284;23;20430;-76
2022/07/22 12:11:23;;;;;;;1.47;0.80;;;26.30;82.40;;;;;;6058009;23;20449;-76
2022/07/22 12:13:54;;;;;;;1.47;0.90;;;26.40;83.00;;;;;;6076443;23;20459;-76
2022/07/22 12:16:24;;;;;;;1.43;0.80;;;26.40;81.00;;;;;;6052279;23;20458;-76
2022/07/22 12:18:57;;;;;;;1.43;0.80;;;26.40;81.70;;;;;;6076822;23;20426;-77
2022/07/22 12:22:00;;;;;;;1.50;0.80;;;26.30;82.20;;;;;;6054646;23;20450;-75
2022/07/22 12:24:31;;;;;;;1.50;0.90;;;26.40;82.30;;;;;;6075130;23;20780;-76
2022/07/22 12:27:00;;;;;;;1.73;1.10;;;26.80;81.30;;;;;;6058202;23;20453;-76
2022/07/22 12:29:30;;;;;;;1.60;1.23;;;27.10;79.30;;;;;;6068360;23;20431;-77
2022/07/22 12:31:59;;;;;;;1.50;0.90;;;27.20;79.00;;;;;;6057694;23;20630;-76
2022/07/22 12:34:35;;;;;;;1.50;0.80;;;27.20;79.80;;;;;;6067145;23;20419;-77
2022/07/22 12:37:13;;;;;;;1.50;0.80;;;27.30;80.00;;;;;;6063939;23;20532;-76
2022/07/22 12:39:40;;;;;;;1.47;0.80;;;27.40;79.00;;;;;;6065619;23;20783;-77
2022/07/22 12:42:18;;;;;;;1.50;1.00;;;27.40;79.40;;;;;;6060987;23;20439;-77
2022/07/22 12:45:08;;;;;;;1.50;0.90;;;27.60;79.20;;;;;;6067458;23;20434;-77
2022/07/22 12:47:47;;;;;;;1.50;0.80;;;27.60;77.00;;;;;;6072556;23;20435;-76
2022/07/22 12:50:19;;;;;;;8.80;1.90;;;27.20;76.50;;;;;;6061871;23;20412;-77
2022/07/22 12:52:46;;;;;;;2.03;1.67;;;26.90;77.30;;;;;;6065956;23;20976;-77
2022/07/22 12:55:14;;;;;;;1.50;0.80;;;26.60;78.90;;;;;;6057456;23;20423;-76